Time;durP1;ratioP1;P1;durP2;ratioP2;P2;SDS_P1;SDS_P2;PMS_P1;PMS_P2;Temp;Humidity;BMP_temperature;BMP_pressure;BME280_temperature;BME280_humidity;BME280_pressure;Samples;Min_cycle;Max_cycle;Signal;HPM_P1;HPM_P2
2023/01/12 00:00:04;;;;;;;6.83;3.33;;;;;;;3.44;100.00;100655.63;5020024;28;20238;-74
2023/01/12 00:02:38;;;;;;;11.00;3.50;;;;;;;3.40;100.00;100652.19;5021327;28;20217;-73
2023/01/12 00:05:06;;;;;;;12.73;4.37;;;;;;;3.47;100.00;100655.66;5019367;28;20210;-73
2023/01/12 00:07:33;;;;;;;9.43;3.87;;;;;;;3.41;100.00;100659.06;5018732;28;20575;-73
2023/01/12 00:09:59;;;;;;;9.87;3.93;;;;;;;3.37;100.00;100659.91;5022700;28;20203;-73
2023/01/12 00:12:25;;;;;;;8.77;3.67;;;;;;;3.34;100.00;100656.44;5015886;28;20216;-73
2023/01/12 00:14:52;;;;;;;6.87;3.57;;;;;;;3.38;100.00;100658.22;5021916;28;20204;-72
2023/01/12 00:17:18;;;;;;;11.17;3.97;;;;;;;3.38;100.00;100659.06;5021574;28;20576;-73
2023/01/12 00:19:45;;;;;;;10.57;3.57;;;;;;;3.35;100.00;100650.44;5024321;28;20191;-73
2023/01/12 00:22:17;;;;;;;6.03;3.73;;;;;;;3.32;100.00;100642.69;5022330;28;20294;-73
2023/01/12 00:24:45;;;;;;;7.47;3.63;;;;;;;3.37;100.00;100659.91;5020199;28;20282;-76
2023/01/12 00:27:14;;;;;;;9.60;3.60;;;;;;;3.35;100.00;100658.19;5017873;28;20238;-73
2023/01/12 00:29:41;;;;;;;6.70;3.33;;;;;;;3.34;100.00;100656.44;5020140;28;20226;-75
2023/01/12 00:32:11;;;;;;;5.13;3.47;;;;;;;3.35;100.00;100651.31;5015718;28;20226;-75
2023/01/12 00:34:37;;;;;;;5.27;2.97;;;;;;;3.38;100.00;100651.31;5018640;28;20208;-75
2023/01/12 00:37:04;;;;;;;5.13;3.00;;;;;;;3.30;100.00;100659.88;5013208;28;20266;-74
2023/01/12 00:39:32;;;;;;;11.43;3.70;;;;;;;3.32;100.00;100651.28;5022873;28;20208;-75
2023/01/12 00:47:27;;;;;;;11.57;3.90;;;;;;;3.30;100.00;100660.72;5034428;28;20208;-75
2023/01/12 00:49:54;;;;;;;12.40;3.40;;;;;;;3.30;100.00;100653.00;5024319;28;20275;-74
2023/01/12 00:52:21;;;;;;;7.63;3.10;;;;;;;3.26;100.00;100650.44;5026769;28;20634;-75
2023/01/12 00:54:49;;;;;;;10.70;3.70;;;;;;;3.26;100.00;100655.56;5021928;28;20645;-74
2023/01/12 00:57:16;;;;;;;7.00;3.37;;;;;;;3.25;100.00;100646.09;5026404;28;20235;-75
2023/01/12 00:59:43;;;;;;;5.00;3.07;;;;;;;3.21;100.00;100637.50;5019377;28;20204;-74
2023/01/12 01:02:10;;;;;;;8.73;3.90;;;;;;;3.22;100.00;100642.66;5022368;28;20196;-74
2023/01/12 01:04:36;;;;;;;5.77;3.17;;;;;;;3.22;100.00;100652.13;5022627;28;20672;-75
2023/01/12 01:07:03;;;;;;;6.00;2.97;;;;;;;3.19;100.00;100659.84;5023201;28;20712;-74
2023/01/12 01:09:31;;;;;;;7.33;3.27;;;;;;;3.14;100.00;100652.06;5026372;28;20576;-75
2023/01/12 01:11:58;;;;;;;5.87;3.00;;;;;;;3.09;100.00;100646.03;5025562;28;20223;-75
2023/01/12 01:14:25;;;;;;;6.50;2.90;;;;;;;3.01;100.00;100646.00;5025658;28;20204;-75
2023/01/12 01:16:51;;;;;;;9.57;3.40;;;;;;;2.99;100.00;100652.00;5023252;28;20719;-74
2023/01/12 01:19:18;;;;;;;7.87;3.43;;;;;;;2.99;100.00;100649.41;5023594;28;20617;-74
2023/01/12 01:21:44;;;;;;;7.33;3.37;;;;;;;2.91;100.00;100646.81;5025932;28;20192;-75
2023/01/12 01:24:11;;;;;;;8.47;3.17;;;;;;;2.87;100.00;100641.63;5022346;28;20547;-74
2023/01/12 01:26:39;;;;;;;6.63;2.97;;;;;;;2.81;100.00;100642.44;5021454;28;20216;-75
2023/01/12 01:29:07;;;;;;;5.77;3.13;;;;;;;2.81;100.00;100640.75;5021233;28;20205;-74
2023/01/12 01:31:33;;;;;;;4.13;2.57;;;;;;;2.77;100.00;100640.72;5023891;28;20579;-75
2023/01/12 01:34:00;;;;;;;4.47;3.03;;;;;;;2.70;100.00;100632.09;5022276;28;20279;-75
2023/01/12 01:36:27;;;;;;;7.67;2.80;;;;;;;2.72;100.00;100632.09;5018214;28;20246;-75
2023/01/12 01:38:54;;;;;;;9.23;3.13;;;;;;;2.70;100.00;100628.66;5024982;28;20212;-74
2023/01/12 01:41:23;;;;;;;4.07;2.43;;;;;;;2.64;100.00;100622.63;5026796;28;20209;-75
2023/01/12 01:43:53;;;;;;;10.00;2.90;;;;;;;2.62;100.00;100624.31;5027663;28;20195;-75
2023/01/12 01:46:41;;;;;;;6.70;2.63;;;;;;;2.57;100.00;100625.13;5019802;28;20235;-74
2023/01/12 01:49:23;;;;;;;8.57;3.07;;;;;;;2.49;100.00;100619.94;5022336;28;20199;-75
2023/01/12 01:51:50;;;;;;;5.73;2.50;;;;;;;2.49;100.00;100625.09;5021292;28;20220;-75
2023/01/12 01:54:16;;;;;;;3.67;2.23;;;;;;;2.51;100.00;100625.94;5022669;28;20204;-73
2023/01/12 01:56:43;;;;;;;9.20;2.90;;;;;;;2.49;100.00;100630.22;5020046;28;20224;-75
2023/01/12 01:59:14;;;;;;;6.60;2.60;;;;;;;2.46;100.00;100630.19;5019300;28;20196;-74
2023/01/12 02:01:42;;;;;;;9.23;2.80;;;;;;;2.44;100.00;100619.03;5023574;28;20203;-74
2023/01/12 02:04:10;;;;;;;8.93;2.60;;;;;;;2.36;100.00;100619.00;5024751;28;20278;-75
2023/01/12 02:06:37;;;;;;;9.37;2.73;;;;;;;2.34;100.00;100612.97;5020529;28;20246;-75
2023/01/12 02:09:08;;;;;;;3.40;2.20;;;;;;;2.29;100.00;100627.53;5023309;28;20262;-75
2023/01/12 02:17:19;;;;;;;4.83;2.50;;;;;;;2.14;100.00;100629.97;5025763;28;20234;-75
2023/01/12 02:20:25;;;;;;;7.73;2.40;;;;;;;2.09;100.00;100627.34;5024019;28;20350;-75
2023/01/12 02:23:16;;;;;;;9.87;2.50;;;;;;;2.14;100.00;100617.09;5019906;28;20204;-73
2023/01/12 02:26:17;;;;;;;7.37;1.97;;;;;;;2.15;100.00;100621.41;5021295;28;20557;-75
2023/01/12 02:29:00;;;;;;;4.87;2.60;;;;;;;2.14;100.00;100627.38;5001878;28;20220;-75
2023/01/12 02:31:42;;;;;;;6.47;2.27;;;;;;;2.13;100.00;100620.50;5024594;28;20204;-75
2023/01/12 02:34:19;;;;;;;9.30;2.47;;;;;;;2.15;100.00;100623.97;5018621;28;20208;-75
2023/01/12 02:36:58;;;;;;;4.07;1.93;;;;;;;2.10;100.00;100618.78;5021368;28;20228;-76
2023/01/12 02:39:30;;;;;;;6.03;2.43;;;;;;;2.07;100.00;100611.88;5025009;28;20674;-76
2023/01/12 02:44:55;;;;;;;5.83;2.20;;;;;;;2.10;100.00;100599.94;5024673;28;20660;-75
2023/01/12 02:47:28;;;;;;;6.97;1.83;;;;;;;2.09;100.00;100586.19;5022851;28;20224;-73
2023/01/12 02:50:01;;;;;;;3.20;2.20;;;;;;;2.10;100.00;100585.34;5020404;28;20200;-75
2023/01/12 02:52:31;;;;;;;8.23;2.83;;;;;;;2.09;100.00;100586.19;5021912;28;20224;-75
2023/01/12 02:55:00;;;;;;;6.37;2.80;;;;;;;2.10;100.00;100587.91;5020195;28;20202;-75
2023/01/12 02:57:30;;;;;;;3.73;2.43;;;;;;;2.15;100.00;100587.97;5028786;28;20231;-73
2023/01/12 03:00:00;;;;;;;6.83;2.30;;;;;;;2.17;100.00;100573.41;5018635;28;20214;-75
2023/01/12 03:02:29;;;;;;;6.70;2.03;;;;;;;2.16;100.00;100562.22;5022661;28;20204;-75
2023/01/12 03:04:55;;;;;;;3.70;1.90;;;;;;;2.13;100.00;100566.50;5021947;28;20200;-74
2023/01/12 03:07:33;;;;;;;5.83;2.23;;;;;;;2.14;100.00;100569.09;5023564;28;20235;-75
2023/01/12 03:10:12;;;;;;;7.13;2.13;;;;;;;2.17;100.00;100581.13;5018677;28;20567;-75
2023/01/12 03:12:41;;;;;;;3.90;1.90;;;;;;;2.25;100.00;100572.63;5024258;28;20455;-74
2023/01/12 03:15:10;;;;;;;3.63;1.80;;;;;;;2.28;100.00;100579.47;5024344;28;20200;-74
2023/01/12 03:17:43;;;;;;;2.50;1.70;;;;;;;2.30;100.00;100574.34;5024834;28;20211;-75
2023/01/12 03:20:14;;;;;;;4.87;1.90;;;;;;;2.32;100.00;100564.91;5016821;28;20567;-75
2023/01/12 03:22:41;;;;;;;9.37;1.80;;;;;;;2.32;100.00;100565.78;5022308;28;20211;-73
2023/01/12 03:25:12;;;;;;;4.37;2.13;;;;;;;2.37;100.00;100573.53;5021940;28;20207;-75
2023/01/12 03:27:42;;;;;;;5.03;2.00;;;;;;;2.36;100.00;100572.69;5024813;28;20864;-75
2023/01/12 03:30:14;;;;;;;4.50;2.03;;;;;;;2.40;100.00;100564.13;5023397;28;20785;-74
2023/01/12 03:32:42;;;;;;;2.33;1.40;;;;;;;2.42;100.00;100570.13;5021235;28;20219;-74
2023/01/12 03:35:10;;;;;;;6.00;1.80;;;;;;;2.45;100.00;100552.13;5023943;28;20826;-75
2023/01/12 03:37:39;;;;;;;6.50;2.50;;;;;;;2.46;100.00;100556.44;5020182;28;20210;-75
2023/01/12 03:40:11;;;;;;;6.00;1.90;;;;;;;2.50;100.00;100561.59;5023828;28;20230;-75
2023/01/12 03:42:45;;;;;;;5.90;1.93;;;;;;;2.51;100.00;100556.47;5020421;28;20193;-75
2023/01/12 03:45:23;;;;;;;8.33;1.77;;;;;;;2.56;100.00;100553.91;5021682;28;20288;-75
2023/01/12 03:47:56;;;;;;;3.37;1.37;;;;;;;2.61;100.00;100547.94;5021107;28;20567;-75
2023/01/12 03:50:27;;;;;;;5.47;2.30;;;;;;;2.63;100.00;100545.38;5021515;28;20849;-75
2023/01/12 03:52:54;;;;;;;5.87;1.90;;;;;;;2.65;100.00;100544.50;5014503;28;20247;-76
2023/01/12 03:55:23;;;;;;;7.10;2.40;;;;;;;2.72;100.00;100548.00;5019263;28;21096;-75
2023/01/12 03:57:52;;;;;;;2.23;1.40;;;;;;;2.74;100.00;100556.56;5019234;28;20195;-74
2023/01/12 04:00:21;;;;;;;4.90;1.60;;;;;;;2.76;100.00;100541.13;5023788;28;20208;-73
2023/01/12 04:02:47;;;;;;;5.60;1.90;;;;;;;2.80;100.00;100540.31;5017844;28;20200;-76
2023/01/12 04:05:15;;;;;;;4.00;1.43;;;;;;;2.86;100.00;100544.63;5017896;28;20208;-75
2023/01/12 04:07:42;;;;;;;2.87;1.47;;;;;;;2.94;100.00;100542.94;5021579;28;20206;-74
2023/01/12 04:10:09;;;;;;;2.93;1.60;;;;;;;3.01;100.00;100542.13;5028094;28;20242;-75
2023/01/12 04:12:35;;;;;;;3.20;1.30;;;;;;;3.08;100.00;100545.56;5023032;28;20227;-75
2023/01/12 04:15:02;;;;;;;2.77;1.43;;;;;;;3.12;100.00;100537.84;5018561;28;20184;-75
2023/01/12 04:17:29;;;;;;;11.60;2.10;;;;;;;3.20;100.00;100541.31;5018860;28;20211;-76
2023/01/12 04:19:55;;;;;;;4.00;1.70;;;;;;;3.34;100.00;100527.59;5015057;28;20711;-75
2023/01/12 04:25:07;;;;;;;9.30;1.57;;;;;;;3.51;100.00;100527.63;5024991;28;20343;-74
2023/01/12 04:27:34;;;;;;;4.37;1.50;;;;;;;3.57;100.00;100525.91;5021934;28;20196;-75
2023/01/12 04:30:00;;;;;;;8.13;1.73;;;;;;;3.66;100.00;100525.06;5016326;28;20588;-74
2023/01/12 04:32:27;;;;;;;7.70;1.80;;;;;;;3.68;100.00;100525.91;5019454;28;20233;-74
2023/01/12 04:34:54;;;;;;;4.20;1.20;;;;;;;3.72;100.00;100524.22;5021058;28;20204;-75
2023/01/12 04:37:20;;;;;;;7.00;1.80;;;;;;;3.75;100.00;100519.91;5016846;28;20227;-75
2023/01/12 04:39:48;;;;;;;6.43;1.67;;;;;;;3.76;100.00;100523.34;5017876;28;21066;-75
2023/01/12 04:44:55;;;;;;;2.33;1.63;;;;;;;3.83;100.00;100519.03;5021284;28;20211;-74
2023/01/12 04:47:21;;;;;;;14.70;1.73;;;;;;;3.83;100.00;100519.91;5018745;28;20224;-75
2023/01/12 04:49:47;;;;;;;3.40;1.10;;;;;;;3.88;100.00;100528.50;5019539;28;20206;-74
2023/01/12 04:52:14;;;;;;;8.17;1.53;;;;;;;3.90;100.00;100520.75;5022437;28;20660;-74
2023/01/12 04:54:40;;;;;;;6.23;1.87;;;;;;;3.91;100.00;100514.75;5021058;28;20601;-75
2023/01/12 04:57:13;;;;;;;6.47;1.70;;;;;;;3.95;100.00;100511.31;5020307;28;20243;-75
2023/01/12 04:59:39;;;;;;;8.67;2.00;;;;;;;4.00;100.00;100514.75;5023191;28;20196;-75
2023/01/12 05:02:06;;;;;;;4.47;1.33;;;;;;;4.01;100.00;100513.88;5023552;28;20204;-76
2023/01/12 05:04:32;;;;;;;7.60;1.50;;;;;;;4.02;100.00;100514.75;5021610;28;20207;-73
2023/01/12 05:06:58;;;;;;;3.60;1.60;;;;;;;4.02;100.00;100505.28;5020876;28;20583;-75
2023/01/12 05:12:10;;;;;;;6.90;1.60;;;;;;;4.07;100.00;100505.28;5018413;28;20205;-74
2023/01/12 05:14:36;;;;;;;3.90;1.50;;;;;;;4.09;100.00;100508.72;5018637;28;20603;-75
2023/01/12 05:17:03;;;;;;;5.90;1.23;;;;;;;4.11;100.00;100505.25;5017536;28;20311;-73
2023/01/12 05:19:30;;;;;;;6.00;1.50;;;;;;;4.13;100.00;100503.56;5021970;28;20720;-74
2023/01/12 05:21:56;;;;;;;2.50;1.60;;;;;;;4.17;100.00;100509.56;5012159;28;20211;-74
2023/01/12 05:24:24;;;;;;;3.13;1.20;;;;;;;4.18;100.00;100503.53;5016566;28;20196;-75
2023/01/12 05:26:50;;;;;;;2.50;1.40;;;;;;;4.18;100.00;100512.13;5017026;28;20579;-75
2023/01/12 05:29:18;;;;;;;6.43;1.43;;;;;;;4.17;100.00;100509.56;5016931;28;20287;-75
2023/01/12 05:31:44;;;;;;;5.83;1.57;;;;;;;4.18;100.00;100503.53;5020128;28;20200;-75
2023/01/12 05:34:10;;;;;;;3.63;1.10;;;;;;;4.18;100.00;100495.78;5021544;28;20729;-76
2023/01/12 05:36:37;;;;;;;6.23;1.57;;;;;;;4.21;100.00;100493.19;5024600;28;20295;-75
2023/01/12 05:39:04;;;;;;;3.13;1.37;;;;;;;4.21;100.00;100477.72;5017247;28;20629;-74
2023/01/12 05:41:30;;;;;;;4.90;1.87;;;;;;;4.24;100.00;100484.56;5021789;28;20207;-75
2023/01/12 05:43:56;;;;;;;5.50;2.00;;;;;;;4.26;100.00;100482.88;5019571;28;20188;-75
2023/01/12 05:46:26;;;;;;;6.70;1.70;;;;;;;4.27;100.00;100484.59;5021229;28;20223;-75
2023/01/12 05:48:57;;;;;;;6.97;1.47;;;;;;;4.26;100.00;100481.16;5024407;28;20561;-75
2023/01/12 05:51:25;;;;;;;2.03;1.23;;;;;;;4.26;100.00;100486.31;5022366;28;20213;-75
2023/01/12 05:53:52;;;;;;;7.07;1.47;;;;;;;4.28;100.00;100489.75;5019134;28;20648;-75
2023/01/12 05:56:20;;;;;;;3.63;1.30;;;;;;;4.31;100.00;100486.28;5040608;22;21274;-69
2023/01/12 05:58:50;;;;;;;5.83;1.50;;;;;;;4.30;100.00;100485.44;5020160;28;20192;-69
2023/01/12 06:01:16;;;;;;;8.20;1.90;;;;;;;4.29;100.00;100476.00;5021330;28;20210;-69
2023/01/12 06:03:48;;;;;;;2.57;1.50;;;;;;;4.29;100.00;100475.09;5014678;28;20567;-69
2023/01/12 06:06:15;;;;;;;6.30;1.90;;;;;;;4.28;100.00;100474.25;5018064;28;20230;-69
2023/01/12 06:08:41;;;;;;;7.07;1.57;;;;;;;4.27;100.00;100472.53;5016307;28;20282;-69
2023/01/12 06:13:55;;;;;;;8.07;1.37;;;;;;;4.27;100.00;100469.94;5019239;28;20226;-69
2023/01/12 06:13:56;;;;;;;3.17;1.40;;;;;;;4.26;100.00;100465.66;5015768;28;20221;-69
2023/01/12 06:16:23;;;;;;;7.53;1.47;;;;;;;4.26;100.00;100477.72;5012112;28;20220;-69
2023/01/12 06:18:50;;;;;;;6.60;1.60;;;;;;;4.26;100.00;100475.13;5017579;28;20691;-71
2023/01/12 06:21:17;;;;;;;5.10;1.80;;;;;;;4.25;100.00;100476.84;5017731;28;20222;-70
2023/01/12 06:23:44;;;;;;;8.90;1.70;;;;;;;4.24;100.00;100472.56;5025533;28;20195;-70
2023/01/12 06:26:10;;;;;;;5.23;1.63;;;;;;;4.26;100.00;100469.97;5015993;28;20287;-71
2023/01/12 06:28:37;;;;;;;9.20;1.90;;;;;;;4.24;100.00;100464.81;5016882;28;20650;-71
2023/01/12 06:31:05;;;;;;;4.70;1.43;;;;;;;4.25;100.00;100461.34;5021185;28;20200;-72
2023/01/12 06:33:32;;;;;;;9.33;2.60;;;;;;;4.25;100.00;100463.09;5020025;28;20219;-72
2023/01/12 06:36:00;;;;;;;4.13;1.43;;;;;;;4.25;100.00;100466.50;5015114;28;20230;-71
2023/01/12 06:38:28;;;;;;;5.23;1.47;;;;;;;4.24;100.00;100466.50;5013762;28;20204;-71
2023/01/12 06:40:56;;;;;;;7.70;1.97;;;;;;;4.24;100.00;100471.69;5022387;28;20238;-71
2023/01/12 06:43:26;;;;;;;6.00;2.50;;;;;;;4.20;100.00;100470.81;5029675;28;20614;-71
2023/01/12 06:45:53;;;;;;;8.67;2.63;;;;;;;4.19;100.00;100479.44;5016821;28;20235;-71
2023/01/12 06:48:21;;;;;;;7.13;2.43;;;;;;;4.15;100.00;100477.72;5023595;28;20265;-72
2023/01/12 06:50:48;;;;;;;10.67;2.57;;;;;;;4.08;100.00;100476.00;5014479;28;20567;-71
2023/01/12 06:53:15;;;;;;;9.57;1.83;;;;;;;4.07;100.00;100470.00;5019317;28;20692;-71
2023/01/12 06:55:48;;;;;;;8.30;2.50;;;;;;;4.12;100.00;100482.91;5015490;28;20216;-71
2023/01/12 06:58:14;;;;;;;3.13;1.97;;;;;;;4.06;100.00;100476.00;5015738;28;20262;-71
2023/01/12 07:00:41;;;;;;;8.33;1.83;;;;;;;4.05;100.00;100476.91;5017334;28;20200;-71
2023/01/12 07:03:12;;;;;;;5.03;2.10;;;;;;;4.02;100.00;100469.16;5033717;28;20211;-71
2023/01/12 07:05:38;;;;;;;3.90;1.73;;;;;;;4.01;100.00;100477.78;5023841;28;20374;-71
2023/01/12 07:08:05;;;;;;;5.60;2.40;;;;;;;4.01;100.00;100471.72;5019912;28;20199;-71
2023/01/12 07:10:33;;;;;;;5.97;2.23;;;;;;;3.99;100.00;100471.72;5019766;28;20205;-71
2023/01/12 07:12:59;;;;;;;6.43;3.00;;;;;;;4.00;100.00;100470.03;5023557;28;20212;-71
2023/01/12 07:15:26;;;;;;;6.07;2.00;;;;;;;3.96;100.00;100469.19;5021096;28;20200;-71
2023/01/12 07:17:55;;;;;;;10.43;2.50;;;;;;;3.91;100.00;100468.31;5013702;28;20208;-71
2023/01/12 07:20:22;;;;;;;5.10;2.40;;;;;;;3.89;100.00;100472.63;5016262;28;20239;-72
2023/01/12 07:22:48;;;;;;;7.17;2.47;;;;;;;3.85;100.00;100463.16;5016076;28;20204;-71
2023/01/12 07:25:15;;;;;;;6.70;2.90;;;;;;;3.91;100.00;100469.16;5016895;28;20688;-71
2023/01/12 07:27:49;;;;;;;6.20;2.23;;;;;;;4.00;100.00;100470.03;5013827;28;20323;-71
2023/01/12 07:30:15;;;;;;;5.13;2.70;;;;;;;4.07;100.00;100466.56;5012108;28;20198;-71
2023/01/12 07:32:42;;;;;;;10.33;3.57;;;;;;;4.13;100.00;100472.59;5019782;28;20201;-71
2023/01/12 07:35:08;;;;;;;6.30;2.63;;;;;;;4.20;100.00;100464.81;5021037;28;20213;-71
2023/01/12 07:37:35;;;;;;;10.30;2.33;;;;;;;4.26;100.00;100459.66;5019733;28;20220;-71
2023/01/12 07:40:01;;;;;;;6.27;2.10;;;;;;;4.33;100.00;100457.03;5013260;28;20204;-71
2023/01/12 07:42:28;;;;;;;4.63;2.27;;;;;;;4.38;100.00;100454.44;5014119;28;20196;-69
2023/01/12 07:44:55;;;;;;;6.77;2.27;;;;;;;4.44;100.00;100459.56;5031808;28;20213;-70
2023/01/12 07:47:22;;;;;;;7.37;3.00;;;;;;;4.52;100.00;100463.00;5020462;28;20228;-69
2023/01/12 07:49:48;;;;;;;14.83;3.70;;;;;;;4.57;100.00;100462.97;5012657;28;20200;-69
2023/01/12 07:52:14;;;;;;;3.87;2.40;;;;;;;4.63;100.00;100459.53;5019019;28;20283;-69
2023/01/12 07:54:41;;;;;;;6.43;2.87;;;;;;;4.68;100.00;100462.94;5019397;28;20224;-69
2023/01/12 07:57:10;;;;;;;7.93;3.00;;;;;;;4.74;100.00;100456.00;5021971;28;20237;-69
2023/01/12 07:59:36;;;;;;;4.57;2.03;;;;;;;4.83;100.00;100457.69;5020072;28;20250;-69
2023/01/12 08:02:05;;;;;;;9.33;3.03;;;;;;;4.91;100.00;100460.25;5022845;28;20199;-69
2023/01/12 08:04:32;;;;;;;8.43;3.00;;;;;;;4.95;100.00;100455.91;5021237;28;20201;-69
2023/01/12 08:06:59;;;;;;;8.47;2.50;;;;;;;5.01;100.00;100455.88;5018337;28;20727;-70
2023/01/12 08:09:26;;;;;;;7.43;2.33;;;;;;;5.07;100.00;100454.09;5016635;28;20704;-69
2023/01/12 08:11:53;;;;;;;9.90;2.93;;;;;;;5.11;100.00;100454.94;5017479;28;20234;-70
2023/01/12 08:14:26;;;;;;;8.77;3.10;;;;;;;5.16;100.00;100460.94;5014404;28;20216;-70
2023/01/12 08:16:54;;;;;;;9.07;2.33;;;;;;;5.31;100.00;100462.56;5014466;28;20283;-69
2023/01/12 08:19:25;;;;;;;6.27;3.03;;;;;;;5.39;100.00;100454.75;5013124;28;20283;-69
2023/01/12 08:21:57;;;;;;;5.33;2.13;;;;;;;5.53;100.00;100452.06;5012753;28;20205;-70
2023/01/12 08:24:29;;;;;;;6.07;2.67;;;;;;;5.62;100.00;100451.97;5015127;28;20215;-70
2023/01/12 08:26:59;;;;;;;5.10;1.70;;;;;;;5.71;100.00;100440.69;5018306;28;20220;-70
2023/01/12 08:29:31;;;;;;;6.40;2.10;;;;;;;5.75;100.00;100437.19;5014804;28;20699;-69
2023/01/12 08:31:58;;;;;;;5.47;1.20;;;;;;;5.77;100.00;100431.16;5012490;28;20196;-70
2023/01/12 08:34:26;;;;;;;3.90;1.47;;;;;;;5.76;100.00;100432.00;5018659;28;20741;-70
2023/01/12 08:36:53;;;;;;;4.57;1.57;;;;;;;5.76;100.00;100429.44;5022632;28;20228;-69
2023/01/12 08:39:19;;;;;;;3.70;1.77;;;;;;;5.78;100.00;100435.44;5014622;28;20235;-69
2023/01/12 08:41:46;;;;;;;12.50;1.80;;;;;;;5.77;100.00;100418.22;5016865;28;20203;-69
2023/01/12 08:44:12;;;;;;;7.20;1.60;;;;;;;5.83;100.00;100438.00;5020963;28;20195;-69
2023/01/12 08:46:45;;;;;;;2.67;1.50;;;;;;;5.89;100.00;100435.34;5018164;28;20232;-70
2023/01/12 08:49:13;;;;;;;2.57;1.60;;;;;;;5.94;100.00;100437.88;5028017;28;20616;-70
2023/01/12 08:51:41;;;;;;;5.33;1.57;;;;;;;5.95;100.00;100434.44;5022109;28;20258;-69
2023/01/12 08:54:08;;;;;;;6.93;1.63;;;;;;;5.98;100.00;100434.41;5017053;28;20226;-70
2023/01/12 08:56:35;;;;;;;3.90;1.47;;;;;;;6.02;100.00;100433.53;5017089;28;20234;-69
2023/01/12 08:59:03;;;;;;;3.23;1.20;;;;;;;6.05;100.00;100434.34;5021641;28;20213;-69
2023/01/12 09:01:30;;;;;;;3.17;1.47;;;;;;;6.10;100.00;100436.03;5020181;28;20512;-69
2023/01/12 09:03:57;;;;;;;3.77;1.40;;;;;;;6.11;100.00;100425.66;5016945;28;20282;-69
2023/01/12 09:06:27;;;;;;;3.60;1.60;;;;;;;6.14;100.00;100428.22;5022887;28;20445;-69
2023/01/12 09:08:55;;;;;;;3.13;1.53;;;;;;;6.16;100.00;100421.28;5037950;28;20204;-69
2023/01/12 09:11:23;;;;;;;5.67;1.63;;;;;;;6.21;100.00;100422.09;5020602;28;20200;-69
2023/01/12 09:13:50;;;;;;;2.17;1.37;;;;;;;6.29;100.00;100418.56;5016769;28;20217;-69
2023/01/12 09:16:18;;;;;;;4.07;1.50;;;;;;;6.36;100.00;100410.69;5020350;28;20503;-69
2023/01/12 09:18:46;;;;;;;6.30;1.63;;;;;;;6.48;100.00;100414.03;5023931;28;20208;-69
2023/01/12 09:21:14;;;;;;;6.03;1.57;;;;;;;6.59;100.00;100410.41;5018229;28;20197;-69
2023/01/12 09:23:41;;;;;;;6.37;1.60;;;;;;;6.66;100.00;100400.81;5019168;28;20219;-70
2023/01/12 09:26:10;;;;;;;3.40;1.20;;;;;;;6.76;100.00;100398.97;5016343;28;20225;-69
2023/01/12 09:28:37;;;;;;;2.57;1.40;;;;;;;6.87;100.00;100391.88;5022588;28;20266;-69
2023/01/12 09:31:05;;;;;;;2.97;1.20;;;;;;;6.97;100.00;100395.22;5018290;28;20645;-69
2023/01/12 09:33:33;;;;;;;3.53;1.33;;;;;;;7.03;100.00;100384.72;5017777;28;20223;-69
2023/01/12 09:36:00;;;;;;;4.20;1.57;;;;;;;7.09;100.00;100389.84;5023849;28;20233;-69
2023/01/12 09:38:26;;;;;;;5.53;1.33;;;;;;;7.18;100.00;100391.44;5020296;28;20206;-69
2023/01/12 09:40:53;;;;;;;2.37;1.07;;;;;;;7.23;100.00;100379.25;5015138;28;20575;-70
2023/01/12 09:48:49;;;;;;;2.23;1.37;;;;;;;7.51;100.00;100378.75;5023563;28;20323;-70
2023/01/12 09:51:25;;;;;;;3.37;1.80;;;;;;;7.61;100.00;100384.66;5022758;28;20202;-70
2023/01/12 09:53:51;;;;;;;4.77;1.30;;;;;;;7.65;100.00;100379.41;5017514;28;20207;-70
2023/01/12 09:56:24;;;;;;;5.10;1.30;;;;;;;7.69;100.00;100386.25;5023249;28;20262;-70
2023/01/12 09:59:08;;;;;;;4.23;1.50;;;;;;;7.72;100.00;100370.63;5021763;28;20199;-69
2023/01/12 10:01:37;;;;;;;4.17;1.50;;;;;;;7.73;100.00;100368.88;5023698;28;20696;-69
2023/01/12 10:04:06;;;;;;;3.03;1.40;;;;;;;7.81;100.00;100363.53;5018003;28;20211;-70
2023/01/12 10:06:32;;;;;;;4.10;1.60;;;;;;;7.86;100.00;100343.53;5016600;28;20712;-69
2023/01/12 10:09:03;;;;;;;2.33;1.10;;;;;;;7.88;100.00;100350.41;5020440;28;20231;-69
2023/01/12 10:11:38;;;;;;;3.33;1.33;;;;;;;7.89;100.00;100352.09;5020396;28;20210;-70
2023/01/12 10:14:29;;;;;;;7.13;2.00;;;;;;;7.92;100.00;100346.03;5017734;28;20199;-70
2023/01/12 10:17:09;;;;;;;4.70;1.63;;;;;;;8.04;100.00;100350.09;5019698;28;20224;-69
2023/01/12 10:19:46;;;;;;;4.03;1.60;;;;;;;8.08;100.00;100346.56;5017543;28;20550;-69
2023/01/12 10:22:35;;;;;;;6.13;1.80;;;;;;;8.08;100.00;100343.97;5017281;28;20685;-69
2023/01/12 10:25:05;;;;;;;3.17;1.30;;;;;;;8.05;100.00;100357.00;5020114;28;20203;-70
2023/01/12 10:27:37;;;;;;;3.87;1.03;;;;;;;8.10;100.00;100347.38;5019926;28;20319;-70
2023/01/12 10:30:12;;;;;;;6.80;1.30;;;;;;;8.12;100.00;100348.22;5022134;28;20202;-70
2023/01/12 10:32:39;;;;;;;3.67;1.63;;;;;;;8.08;100.00;100346.56;5020989;28;20199;-70
2023/01/12 10:35:13;;;;;;;2.33;1.37;;;;;;;8.10;100.00;100335.25;5020747;28;20217;-70
2023/01/12 10:37:43;;;;;;;3.03;1.17;;;;;;;8.18;100.00;100340.31;5027275;28;20214;-70
2023/01/12 10:40:23;;;;;;;1.77;0.97;;;;;;;8.18;100.00;100336.84;5029698;28;20211;-69
2023/01/12 10:45:42;;;;;;;2.67;1.30;;;;;;;8.17;100.00;100324.75;5017853;28;20229;-70
2023/01/12 10:48:17;;;;;;;2.80;1.10;;;;;;;8.20;100.00;100319.50;5021824;28;20219;-70
2023/01/12 10:50:55;;;;;;;4.63;1.07;;;;;;;8.28;100.00;100315.81;5020027;28;20210;-70
2023/01/12 10:53:26;;;;;;;6.27;1.47;;;;;;;8.32;100.00;100312.28;5028448;28;20339;-69
2023/01/12 10:55:55;;;;;;;3.93;1.40;;;;;;;8.41;100.00;100310.34;5018992;28;20250;-70
2023/01/12 10:58:25;;;;;;;2.17;1.10;;;;;;;8.45;100.00;100301.66;5022445;28;20219;-70
2023/01/12 11:00:53;;;;;;;3.40;1.03;;;;;;;8.51;100.00;100292.00;5024513;28;20206;-69
2023/01/12 11:03:30;;;;;;;5.77;1.17;;;;;;;8.51;100.00;100289.38;5025226;28;20586;-70
2023/01/12 11:06:24;;;;;;;2.80;1.00;;;;;;;8.46;100.00;100286.03;5020732;28;20223;-70
2023/01/12 11:08:50;;;;;;;1.40;0.73;;;;;;;8.46;100.00;100275.66;5020629;28;20215;-70
2023/01/12 11:11:24;;;;;;;2.70;0.80;;;;;;;8.43;100.00;100274.88;5026346;28;20215;-69
2023/01/12 11:13:53;;;;;;;3.67;1.03;;;;;;;8.44;100.00;100271.34;5018790;28;20497;-70
2023/01/12 11:16:23;;;;;;;4.70;1.30;;;;;;;8.43;100.00;100272.28;5016890;28;20615;-70
2023/01/12 11:18:56;;;;;;;1.53;1.03;;;;;;;8.46;100.00;100269.56;5014123;28;20428;-70
2023/01/12 11:21:29;;;;;;;3.70;1.20;;;;;;;8.55;100.00;100263.31;5032943;28;20606;-69
2023/01/12 11:23:59;;;;;;;4.03;1.30;;;;;;;8.55;100.00;100265.91;5019976;28;20189;-70
2023/01/12 11:26:29;;;;;;;2.30;0.90;;;;;;;8.50;100.00;100258.25;5018341;28;20220;-70
2023/01/12 11:29:02;;;;;;;3.40;0.90;;;;;;;8.45;100.00;100266.13;5022815;28;20197;-70
2023/01/12 11:31:34;;;;;;;4.80;1.00;;;;;;;8.43;100.00;100256.69;5023671;28;20650;-70
2023/01/12 11:34:03;;;;;;;1.43;0.80;;;;;;;8.42;100.00;100245.41;5017948;28;20204;-69
2023/01/12 11:36:34;;;;;;;5.03;1.20;;;;;;;8.39;100.00;100245.47;5020550;28;20704;-70
2023/01/12 11:39:04;;;;;;;2.87;1.07;;;;;;;8.37;100.00;100242.03;5022225;28;20200;-70
2023/01/12 11:41:37;;;;;;;1.63;0.80;;;;;;;8.39;100.00;100234.19;5025883;28;20339;-70
2023/01/12 11:44:12;;;;;;;6.67;1.10;;;;;;;8.41;100.00;100245.41;5027239;28;20225;-69
2023/01/12 11:46:45;;;;;;;4.40;1.07;;;;;;;8.45;100.00;100241.91;5025562;28;20225;-70
2023/01/12 11:49:17;;;;;;;0.70;0.70;;;;;;;8.46;100.00;100239.28;5022133;28;20200;-70
2023/01/12 11:51:48;;;;;;;2.63;0.93;;;;;;;8.47;100.00;100230.56;5021486;28;20215;-70
2023/01/12 11:54:17;;;;;;;3.70;1.00;;;;;;;8.45;100.00;100221.97;5020713;28;20214;-70
2023/01/12 11:57:03;;;;;;;2.30;0.77;;;;;;;8.47;100.00;100229.72;5035862;23;20228;-72
2023/01/12 11:59:37;;;;;;;1.07;0.90;;;;;;;8.53;100.00;100216.56;5028033;28;20220;-72
2023/01/12 12:02:23;;;;;;;1.17;0.83;;;;;;;8.55;100.00;100216.53;5030470;28;20206;-72
2023/01/12 12:05:04;;;;;;;3.80;1.30;;;;;;;8.52;100.00;100214.88;5028288;28;20222;-72